sensor_id;sensor_type;location;lat;lon;timestamp;pressure;altitude;pressure_sealevel;temperature;humidity
51829;BME280;37881;48.024;8.774;2023-03-25T00:02:22;93406.59;;;5.83;100.00
51829;BME280;37881;48.024;8.774;2023-03-25T00:04:51;93404.66;;;5.83;100.00
51829;BME280;37881;48.024;8.774;2023-03-25T00:07:19;93390.66;;;5.81;100.00
51829;BME280;37881;48.024;8.774;2023-03-25T00:09:46;93383.63;;;5.87;100.00
51829;BME280;37881;48.024;8.774;2023-03-25T00:12:14;93392.63;;;5.73;100.00
51829;BME280;37881;48.024;8.774;2023-03-25T00:14:45;93398.50;;;5.72;100.00
51829;BME280;37881;48.024;8.774;2023-03-25T00:17:21;93405.50;;;5.69;100.00
51829;BME280;37881;48.024;8.774;2023-03-25T00:19:48;93414.47;;;5.66;100.00
51829;BME280;37881;48.024;8.774;2023-03-25T00:22:17;93420.28;;;5.68;100.00
51829;BME280;37881;48.024;8.774;2023-03-25T00:24:44;93423.00;;;5.68;100.00
51829;BME280;37881;48.024;8.774;2023-03-25T00:27:11;93415.25;;;5.63;100.00
51829;BME280;37881;48.024;8.774;2023-03-25T00:29:40;93416.06;;;5.56;100.00
51829;BME280;37881;48.024;8.774;2023-03-25T00:32:07;93425.03;;;5.53;100.00
51829;BME280;37881;48.024;8.774;2023-03-25T00:34:34;93411.44;;;5.53;100.00
51829;BME280;37881;48.024;8.774;2023-03-25T00:37:07;93413.34;;;5.56;100.00
51829;BME280;37881;48.024;8.774;2023-03-25T00:39:35;93416.44;;;5.55;100.00
51829;BME280;37881;48.024;8.774;2023-03-25T00:42:03;93415.66;;;5.62;100.00
51829;BME280;37881;48.024;8.774;2023-03-25T00:44:30;93405.91;;;5.68;100.00
51829;BME280;37881;48.024;8.774;2023-03-25T00:46:58;93392.69;;;5.70;100.00
51829;BME280;37881;48.024;8.774;2023-03-25T00:49:24;93402.72;;;5.84;100.00
51829;BME280;37881;48.024;8.774;2023-03-25T00:51:57;93402.31;;;5.85;100.00
51829;BME280;37881;48.024;8.774;2023-03-25T00:54:23;93403.09;;;5.86;100.00
51829;BME280;37881;48.024;8.774;2023-03-25T00:56:51;93391.81;;;5.84;100.00
51829;BME280;37881;48.024;8.774;2023-03-25T00:59:18;93384.81;;;5.83;100.00
51829;BME280;37881;48.024;8.774;2023-03-25T01:01:45;93373.53;;;5.84;100.00
51829;BME280;37881;48.024;8.774;2023-03-25T01:04:12;93365.75;;;5.83;100.00
51829;BME280;37881;48.024;8.774;2023-03-25T01:06:39;93363.84;;;5.79;100.00
51829;BME280;37881;48.024;8.774;2023-03-25T01:09:12;93354.88;;;5.83;100.00
51829;BME280;37881;48.024;8.774;2023-03-25T01:11:40;93356.06;;;5.78;100.00
51829;BME280;37881;48.024;8.774;2023-03-25T01:14:13;93345.56;;;5.76;100.00
51829;BME280;37881;48.024;8.774;2023-03-25T01:16:40;93349.06;;;5.77;100.00
51829;BME280;37881;48.024;8.774;2023-03-25T01:19:08;93359.53;;;5.82;100.00
51829;BME280;37881;48.024;8.774;2023-03-25T01:21:35;93357.63;;;5.75;100.00
51829;BME280;37881;48.024;8.774;2023-03-25T01:24:03;93380.63;;;5.67;100.00
51829;BME280;37881;48.024;8.774;2023-03-25T01:26:30;93388.38;;;5.69;100.00
51829;BME280;37881;48.024;8.774;2023-03-25T01:28:57;93387.22;;;5.70;100.00
51829;BME280;37881;48.024;8.774;2023-03-25T01:31:24;93377.13;;;5.67;100.00
51829;BME280;37881;48.024;8.774;2023-03-25T01:33:56;93365.13;;;5.57;100.00
51829;BME280;37881;48.024;8.774;2023-03-25T01:36:24;93361.63;;;5.60;100.00
51829;BME280;37881;48.024;8.774;2023-03-25T01:38:55;93357.38;;;5.55;100.00
51829;BME280;37881;48.024;8.774;2023-03-25T01:41:25;93357.00;;;5.50;100.00
51829;BME280;37881;48.024;8.774;2023-03-25T01:46:29;93345.66;;;5.58;100.00
51829;BME280;37881;48.024;8.774;2023-03-25T01:48:58;93344.47;;;5.63;100.00
51829;BME280;37881;48.024;8.774;2023-03-25T01:51:29;93353.06;;;5.58;100.00
51829;BME280;37881;48.024;8.774;2023-03-25T01:53:57;93343.72;;;5.63;100.00
51829;BME280;37881;48.024;8.774;2023-03-25T01:56:35;93340.59;;;5.64;100.00
51829;BME280;37881;48.024;8.774;2023-03-25T01:59:06;93338.63;;;5.65;100.00
51829;BME280;37881;48.024;8.774;2023-03-25T02:01:33;93339.00;;;5.70;100.00
51829;BME280;37881;48.024;8.774;2023-03-25T02:04:03;93335.50;;;5.70;100.00
51829;BME280;37881;48.024;8.774;2023-03-25T02:06:42;93347.53;;;5.76;100.00
51829;BME280;37881;48.024;8.774;2023-03-25T02:09:11;93348.66;;;5.78;100.00
51829;BME280;37881;48.024;8.774;2023-03-25T02:11:39;93329.59;;;5.82;100.00
51829;BME280;37881;48.024;8.774;2023-03-25T02:14:09;93331.84;;;5.98;100.00
51829;BME280;37881;48.024;8.774;2023-03-25T02:27:34;93327.44;;;6.15;100.00
51829;BME280;37881;48.024;8.774;2023-03-25T02:38:50;93351.94;;;6.15;100.00
51829;BME280;37881;48.024;8.774;2023-03-25T02:44:29;93350.72;;;6.19;100.00
51829;BME280;37881;48.024;8.774;2023-03-25T02:47:02;93349.19;;;6.22;100.00
51829;BME280;37881;48.024;8.774;2023-03-25T02:52:24;93403.72;;;6.11;100.00
51829;BME280;37881;48.024;8.774;2023-03-25T02:54:54;93425.59;;;5.97;100.00
51829;BME280;37881;48.024;8.774;2023-03-25T02:57:25;93432.00;;;5.62;100.00
51829;BME280;37881;48.024;8.774;2023-03-25T02:59:56;93451.84;;;5.55;100.00
51829;BME280;37881;48.024;8.774;2023-03-25T03:02:25;93428.59;;;5.36;100.00
51829;BME280;37881;48.024;8.774;2023-03-25T03:04:55;93416.56;;;5.30;100.00
51829;BME280;37881;48.024;8.774;2023-03-25T03:07:25;93421.66;;;5.10;100.00
51829;BME280;37881;48.024;8.774;2023-03-25T03:10:02;93433.31;;;5.10;100.00
51829;BME280;37881;48.024;8.774;2023-03-25T03:13:13;93445.34;;;5.16;100.00
51829;BME280;37881;48.024;8.774;2023-03-25T03:24:15;93433.34;;;4.99;100.00
51829;BME280;37881;48.024;8.774;2023-03-25T03:26:52;93421.72;;;4.99;100.00
51829;BME280;37881;48.024;8.774;2023-03-25T03:29:25;93405.78;;;5.01;100.00
51829;BME280;37881;48.024;8.774;2023-03-25T03:31:59;93406.88;;;5.11;100.00
51829;BME280;37881;48.024;8.774;2023-03-25T03:34:48;93407.31;;;5.02;100.00
51829;BME280;37881;48.024;8.774;2023-03-25T03:37:23;93408.06;;;5.06;100.00
51829;BME280;37881;48.024;8.774;2023-03-25T03:39:53;93401.47;;;5.04;100.00
51829;BME280;37881;48.024;8.774;2023-03-25T03:42:34;93400.75;;;4.85;100.00
51829;BME280;37881;48.024;8.774;2023-03-25T03:45:09;93397.63;;;4.90;100.00
51829;BME280;37881;48.024;8.774;2023-03-25T03:47:41;93388.69;;;4.93;100.00
51829;BME280;37881;48.024;8.774;2023-03-25T03:50:15;93368.09;;;4.89;100.00
51829;BME280;37881;48.024;8.774;2023-03-25T03:52:50;93385.97;;;4.83;100.00
51829;BME280;37881;48.024;8.774;2023-03-25T03:55:22;93372.00;;;4.91;100.00
51829;BME280;37881;48.024;8.774;2023-03-25T03:57:58;93366.16;;;4.93;100.00
51829;BME280;37881;48.024;8.774;2023-03-25T04:00:42;93389.47;;;4.90;100.00
51829;BME280;37881;48.024;8.774;2023-03-25T04:03:17;93399.97;;;4.88;100.00
51829;BME280;37881;48.024;8.774;2023-03-25T04:06:02;93397.66;;;4.83;100.00
51829;BME280;37881;48.024;8.774;2023-03-25T04:08:37;93402.31;;;4.79;100.00
51829;BME280;37881;48.024;8.774;2023-03-25T04:11:15;93401.53;;;4.78;100.00
51829;BME280;37881;48.024;8.774;2023-03-25T04:13:46;93415.53;;;4.73;100.00
51829;BME280;37881;48.024;8.774;2023-03-25T04:16:15;93418.25;;;4.66;100.00
51829;BME280;37881;48.024;8.774;2023-03-25T04:18:42;93411.66;;;4.56;100.00
51829;BME280;37881;48.024;8.774;2023-03-25T04:21:09;93413.97;;;4.54;100.00
51829;BME280;37881;48.024;8.774;2023-03-25T04:23:35;93420.19;;;4.58;100.00
51829;BME280;37881;48.024;8.774;2023-03-25T04:26:03;93422.91;;;4.51;100.00
51829;BME280;37881;48.024;8.774;2023-03-25T04:28:30;93419.44;;;4.44;100.00
51829;BME280;37881;48.024;8.774;2023-03-25T04:30:57;93424.47;;;4.38;100.00
51829;BME280;37881;48.024;8.774;2023-03-25T04:33:26;93434.53;;;4.30;100.00
51829;BME280;37881;48.024;8.774;2023-03-25T04:35:57;93431.06;;;4.19;100.00
51829;BME280;37881;48.024;8.774;2023-03-25T04:38:27;93437.63;;;4.14;100.00
51829;BME280;37881;48.024;8.774;2023-03-25T04:40:54;93460.94;;;4.15;100.00
51829;BME280;37881;48.024;8.774;2023-03-25T04:43:21;93460.16;;;4.11;100.00
51829;BME280;37881;48.024;8.774;2023-03-25T04:45:48;93453.53;;;4.05;100.00
51829;BME280;37881;48.024;8.774;2023-03-25T04:48:25;93447.72;;;4.03;100.00
51829;BME280;37881;48.024;8.774;2023-03-25T04:50:59;93444.97;;;3.96;100.00
51829;BME280;37881;48.024;8.774;2023-03-25T04:53:27;93435.69;;;3.97;100.00
51829;BME280;37881;48.024;8.774;2023-03-25T04:55:54;93434.13;;;3.96;100.00
51829;BME280;37881;48.024;8.774;2023-03-25T04:58:21;93429.06;;;3.87;100.00
51829;BME280;37881;48.024;8.774;2023-03-25T05:00:50;93424.78;;;3.79;100.00
51829;BME280;37881;48.024;8.774;2023-03-25T05:03:17;93416.66;;;3.79;100.00
51829;BME280;37881;48.024;8.774;2023-03-25T05:05:50;93421.69;;;3.77;100.00
51829;BME280;37881;48.024;8.774;2023-03-25T05:08:19;93435.22;;;3.70;100.00
51829;BME280;37881;48.024;8.774;2023-03-25T05:10:47;93438.72;;;3.67;100.00
51829;BME280;37881;48.024;8.774;2023-03-25T05:13:14;93439.09;;;3.69;100.00
51829;BME280;37881;48.024;8.774;2023-03-25T05:15:41;93434.84;;;3.71;100.00
51829;BME280;37881;48.024;8.774;2023-03-25T05:18:12;93442.97;;;3.71;100.00
51829;BME280;37881;48.024;8.774;2023-03-25T05:20:41;93452.66;;;3.65;100.00
51829;BME280;37881;48.024;8.774;2023-03-25T05:23:10;93453.81;;;3.68;100.00
51829;BME280;37881;48.024;8.774;2023-03-25T05:25:47;93456.91;;;3.66;100.00
51829;BME280;37881;48.024;8.774;2023-03-25T05:28:16;93460.47;;;3.81;100.00
51829;BME280;37881;48.024;8.774;2023-03-25T05:30:45;93468.63;;;3.92;100.00
51829;BME280;37881;48.024;8.774;2023-03-25T05:33:15;93476.78;;;3.99;100.00
51829;BME280;37881;48.024;8.774;2023-03-25T05:35:43;93481.47;;;3.98;100.00
51829;BME280;37881;48.024;8.774;2023-03-25T05:38:11;93486.50;;;3.96;100.00
51829;BME280;37881;48.024;8.774;2023-03-25T05:40:38;93488.03;;;3.97;100.00
51829;BME280;37881;48.024;8.774;2023-03-25T05:43:05;93490.72;;;3.94;100.00
51829;BME280;37881;48.024;8.774;2023-03-25T05:45:33;93492.69;;;3.97;100.00
51829;BME280;37881;48.024;8.774;2023-03-25T05:48:02;93498.53;;;4.03;100.00
51829;BME280;37881;48.024;8.774;2023-03-25T05:50:29;93494.28;;;4.09;100.00
51829;BME280;37881;48.024;8.774;2023-03-25T05:52:56;93497.75;;;4.06;100.00
51829;BME280;37881;48.024;8.774;2023-03-25T05:55:23;93502.78;;;4.04;100.00
51829;BME280;37881;48.024;8.774;2023-03-25T05:57:50;93500.81;;;3.93;100.00
51829;BME280;37881;48.024;8.774;2023-03-25T06:00:18;93503.09;;;3.84;100.00
51829;BME280;37881;48.024;8.774;2023-03-25T06:02:49;93506.59;;;3.81;100.00
51829;BME280;37881;48.024;8.774;2023-03-25T06:05:16;93498.06;;;3.86;100.00
51829;BME280;37881;48.024;8.774;2023-03-25T06:07:45;93496.59;;;4.07;100.00
51829;BME280;37881;48.024;8.774;2023-03-25T06:10:13;93497.34;;;4.00;100.00
51829;BME280;37881;48.024;8.774;2023-03-25T06:12:44;93492.38;;;4.31;100.00
51829;BME280;37881;48.024;8.774;2023-03-25T06:15:14;93501.72;;;4.37;100.00
51829;BME280;37881;48.024;8.774;2023-03-25T06:17:43;93497.03;;;4.37;100.00
51829;BME280;37881;48.024;8.774;2023-03-25T06:20:13;93512.94;;;4.32;100.00
51829;BME280;37881;48.024;8.774;2023-03-25T06:22:45;93505.16;;;4.09;100.00
51829;BME280;37881;48.024;8.774;2023-03-25T06:25:14;93501.22;;;3.95;100.00
51829;BME280;37881;48.024;8.774;2023-03-25T06:27:43;93504.69;;;3.89;100.00
51829;BME280;37881;48.024;8.774;2023-03-25T06:30:13;93501.97;;;3.89;100.00
51829;BME280;37881;48.024;8.774;2023-03-25T06:32:40;93501.22;;;3.95;100.00
51829;BME280;37881;48.024;8.774;2023-03-25T06:35:08;93495.38;;;3.83;100.00
51829;BME280;37881;48.024;8.774;2023-03-25T06:37:36;93507.81;;;3.98;100.00
51829;BME280;37881;48.024;8.774;2023-03-25T06:40:03;93507.81;;;4.02;100.00
51829;BME280;37881;48.024;8.774;2023-03-25T06:42:31;93515.22;;;4.12;100.00
51829;BME280;37881;48.024;8.774;2023-03-25T06:44:58;93514.03;;;3.98;100.00
51829;BME280;37881;48.024;8.774;2023-03-25T06:47:25;93512.09;;;4.06;100.00
51829;BME280;37881;48.024;8.774;2023-03-25T06:49:52;93521.03;;;4.14;100.00
51829;BME280;37881;48.024;8.774;2023-03-25T06:52:20;93512.16;;;4.38;100.00
51829;BME280;37881;48.024;8.774;2023-03-25T06:54:46;93511.41;;;4.56;100.00
51829;BME280;37881;48.024;8.774;2023-03-25T06:57:13;93512.97;;;4.39;100.00
51829;BME280;37881;48.024;8.774;2023-03-25T06:59:40;93504.81;;;4.39;100.00
51829;BME280;37881;48.024;8.774;2023-03-25T07:02:06;93493.16;;;4.46;100.00
51829;BME280;37881;48.024;8.774;2023-03-25T07:04:33;93494.72;;;4.50;100.00
51829;BME280;37881;48.024;8.774;2023-03-25T07:07:00;93492.81;;;4.65;100.00
51829;BME280;37881;48.024;8.774;2023-03-25T07:09:27;93493.94;;;4.50;100.00
51829;BME280;37881;48.024;8.774;2023-03-25T07:11:53;93505.22;;;4.41;100.00
51829;BME280;37881;48.024;8.774;2023-03-25T07:14:20;93498.22;;;4.51;100.00
51829;BME280;37881;48.024;8.774;2023-03-25T07:16:47;93496.69;;;4.89;100.00
51829;BME280;37881;48.024;8.774;2023-03-25T07:19:14;93506.38;;;5.08;100.00
51829;BME280;37881;48.024;8.774;2023-03-25T07:21:40;93495.19;;;6.16;100.00
51829;BME280;37881;48.024;8.774;2023-03-25T07:24:07;93506.72;;;6.38;100.00
51829;BME280;37881;48.024;8.774;2023-03-25T07:26:34;93495.81;;;5.53;100.00
51829;BME280;37881;48.024;8.774;2023-03-25T07:29:01;93504.00;;;5.32;100.00
51829;BME280;37881;48.024;8.774;2023-03-25T07:31:28;93496.19;;;5.45;100.00
51829;BME280;37881;48.024;8.774;2023-03-25T07:33:55;93496.53;;;5.61;100.00
51829;BME280;37881;48.024;8.774;2023-03-25T07:36:24;93480.06;;;6.00;100.00
51829;BME280;37881;48.024;8.774;2023-03-25T07:38:52;93482.00;;;6.67;100.00
51829;BME280;37881;48.024;8.774;2023-03-25T07:41:22;93478.88;;;6.68;100.00
51829;BME280;37881;48.024;8.774;2023-03-25T07:43:49;93483.38;;;6.37;100.00
51829;BME280;37881;48.024;8.774;2023-03-25T07:46:15;93485.88;;;6.06;100.00
51829;BME280;37881;48.024;8.774;2023-03-25T07:48:42;93487.03;;;6.05;100.00
51829;BME280;37881;48.024;8.774;2023-03-25T07:51:09;93495.69;;;5.78;100.00
51829;BME280;37881;48.024;8.774;2023-03-25T07:53:36;93501.19;;;5.64;100.00
51829;BME280;37881;48.024;8.774;2023-03-25T07:56:05;93495.03;;;5.38;100.00
51829;BME280;37881;48.024;8.774;2023-03-25T07:58:32;93497.75;;;5.38;100.00
51829;BME280;37881;48.024;8.774;2023-03-25T08:00:59;93498.91;;;5.52;100.00
51829;BME280;37881;48.024;8.774;2023-03-25T08:03:26;93498.53;;;5.43;100.00
51829;BME280;37881;48.024;8.774;2023-03-25T08:05:54;93497.72;;;5.64;100.00
51829;BME280;37881;48.024;8.774;2023-03-25T08:08:20;93498.16;;;5.37;100.00
51829;BME280;37881;48.024;8.774;2023-03-25T08:10:49;93488.47;;;6.28;100.00
51829;BME280;37881;48.024;8.774;2023-03-25T08:13:16;93495.09;;;6.30;100.00
51829;BME280;37881;48.024;8.774;2023-03-25T08:15:43;93489.19;;;6.39;100.00
51829;BME280;37881;48.024;8.774;2023-03-25T08:18:09;93494.34;;;7.27;100.00
51829;BME280;37881;48.024;8.774;2023-03-25T08:20:36;93488.19;;;7.19;100.00
51829;BME280;37881;48.024;8.774;2023-03-25T08:23:03;93492.06;;;6.73;100.00
51829;BME280;37881;48.024;8.774;2023-03-25T08:25:30;93494.06;;;6.69;100.00
51829;BME280;37881;48.024;8.774;2023-03-25T08:27:57;93502.38;;;6.48;100.00
51829;BME280;37881;48.024;8.774;2023-03-25T08:30:23;93499.00;;;6.26;100.00
51829;BME280;37881;48.024;8.774;2023-03-25T08:32:50;93500.88;;;6.39;100.00
51829;BME280;37881;48.024;8.774;2023-03-25T08:35:23;93499.38;;;6.28;100.00
51829;BME280;37881;48.024;8.774;2023-03-25T08:37:50;93508.03;;;6.12;100.00
51829;BME280;37881;48.024;8.774;2023-03-25T08:40:17;93500.75;;;5.76;100.00
51829;BME280;37881;48.024;8.774;2023-03-25T08:42:45;93502.75;;;5.65;100.00
51829;BME280;37881;48.024;8.774;2023-03-25T08:45:12;93502.00;;;5.57;100.00
51829;BME280;37881;48.024;8.774;2023-03-25T08:47:41;93501.63;;;5.55;100.00
51829;BME280;37881;48.024;8.774;2023-03-25T08:50:09;93503.53;;;5.62;100.00
51829;BME280;37881;48.024;8.774;2023-03-25T08:52:36;93503.16;;;5.60;100.00
51829;BME280;37881;48.024;8.774;2023-03-25T08:55:03;93504.19;;;6.02;100.00
51829;BME280;37881;48.024;8.774;2023-03-25T08:57:36;93498.00;;;5.98;100.00
51829;BME280;37881;48.024;8.774;2023-03-25T09:00:04;93497.53;;;6.14;100.00
51829;BME280;37881;48.024;8.774;2023-03-25T09:02:40;93493.25;;;6.09;100.00
51829;BME280;37881;48.024;8.774;2023-03-25T09:05:09;93494.50;;;5.83;100.00
51829;BME280;37881;48.024;8.774;2023-03-25T09:07:37;93492.13;;;6.03;100.00
51829;BME280;37881;48.024;8.774;2023-03-25T09:10:05;93483.69;;;5.69;100.00
51829;BME280;37881;48.024;8.774;2023-03-25T09:12:32;93489.03;;;5.94;100.00
51829;BME280;37881;48.024;8.774;2023-03-25T09:14:59;93492.50;;;6.05;100.00
51829;BME280;37881;48.024;8.774;2023-03-25T09:17:26;93480.28;;;6.31;100.00
51829;BME280;37881;48.024;8.774;2023-03-25T09:19:52;93491.72;;;6.05;100.00
51829;BME280;37881;48.024;8.774;2023-03-25T09:22:21;93482.78;;;6.00;100.00
51829;BME280;37881;48.024;8.774;2023-03-25T09:24:48;93469.03;;;6.26;100.00
51829;BME280;37881;48.024;8.774;2023-03-25T09:27:14;93460.75;;;7.34;100.00
51829;BME280;37881;48.024;8.774;2023-03-25T09:29:41;93453.69;;;8.32;100.00
51829;BME280;37881;48.024;8.774;2023-03-25T09:32:08;93459.81;;;7.82;100.00
51829;BME280;37881;48.024;8.774;2023-03-25T09:34:34;93460.94;;;8.19;100.00
51829;BME280;37881;48.024;8.774;2023-03-25T09:37:01;93462.34;;;8.58;100.00
51829;BME280;37881;48.024;8.774;2023-03-25T09:39:28;93464.88;;;8.45;100.00
51829;BME280;37881;48.024;8.774;2023-03-25T09:44:55;93453.41;;;7.65;100.00
51829;BME280;37881;48.024;8.774;2023-03-25T09:47:25;93476.56;;;7.08;100.00
51829;BME280;37881;48.024;8.774;2023-03-25T09:49:56;93473.03;;;7.15;100.00
51829;BME280;37881;48.024;8.774;2023-03-25T09:52:30;93462.84;;;7.57;100.00
51829;BME280;37881;48.024;8.774;2023-03-25T09:55:01;93472.75;;;7.78;100.00
51829;BME280;37881;48.024;8.774;2023-03-25T09:57:31;93477.41;;;10.77;100.00
51829;BME280;37881;48.024;8.774;2023-03-25T10:00:00;93457.75;;;12.70;84.00
51829;BME280;37881;48.024;8.774;2023-03-25T10:21:54;93482.91;;;8.93;100.00
51829;BME280;37881;48.024;8.774;2023-03-25T10:29:38;93490.53;;;8.24;100.00
51829;BME280;37881;48.024;8.774;2023-03-25T10:32:15;93496.22;;;9.15;97.99
51829;BME280;37881;48.024;8.774;2023-03-25T10:34:47;93496.75;;;8.83;97.26
51829;BME280;37881;48.024;8.774;2023-03-25T10:37:21;93499.38;;;8.63;97.74
51829;BME280;37881;48.024;8.774;2023-03-25T10:39:50;93500.91;;;8.91;99.26
51829;BME280;37881;48.024;8.774;2023-03-25T10:42:28;93493.09;;;8.35;100.00
51829;BME280;37881;48.024;8.774;2023-03-25T10:44:57;93515.03;;;9.13;97.17
51829;BME280;37881;48.024;8.774;2023-03-25T10:47:29;93496.22;;;11.90;79.12
51829;BME280;37881;48.024;8.774;2023-03-25T10:49:58;93491.00;;;11.17;81.10
51829;BME280;37881;48.024;8.774;2023-03-25T10:52:26;93496.38;;;11.04;79.13
51829;BME280;37881;48.024;8.774;2023-03-25T10:54:54;93488.16;;;9.51;86.72
51829;BME280;37881;48.024;8.774;2023-03-25T10:57:27;93503.88;;;9.04;93.83
51829;BME280;37881;48.024;8.774;2023-03-25T11:00:07;93508.16;;;8.19;94.76
51829;BME280;37881;48.024;8.774;2023-03-25T11:02:42;93509.44;;;8.42;94.75
51829;BME280;37881;48.024;8.774;2023-03-25T11:05:09;93501.19;;;8.46;96.08
51829;BME280;37881;48.024;8.774;2023-03-25T11:07:40;93498.31;;;9.07;93.75
51829;BME280;37881;48.024;8.774;2023-03-25T11:12:42;93498.09;;;8.98;92.30
51829;BME280;37881;48.024;8.774;2023-03-25T11:15:22;93497.28;;;8.74;92.67
51829;BME280;37881;48.024;8.774;2023-03-25T11:17:58;93496.94;;;9.43;92.77
51829;BME280;37881;48.024;8.774;2023-03-25T11:20:29;93506.75;;;8.93;90.36
51829;BME280;37881;48.024;8.774;2023-03-25T11:23:04;93493.69;;;9.04;88.36
51829;BME280;37881;48.024;8.774;2023-03-25T11:25:37;93488.06;;;9.11;89.67
51829;BME280;37881;48.024;8.774;2023-03-25T11:28:15;93486.34;;;9.21;93.30
51829;BME280;37881;48.024;8.774;2023-03-25T11:31:21;93489.75;;;9.29;91.94
51829;BME280;37881;48.024;8.774;2023-03-25T11:36:39;93475.78;;;11.74;75.90
51829;BME280;37881;48.024;8.774;2023-03-25T11:39:17;93478.59;;;10.76;77.71
51829;BME280;37881;48.024;8.774;2023-03-25T11:41:44;93485.97;;;10.26;78.75
51829;BME280;37881;48.024;8.774;2023-03-25T11:44:40;93479.91;;;10.88;78.67
51829;BME280;37881;48.024;8.774;2023-03-25T11:47:09;93474.78;;;10.17;79.35
51829;BME280;37881;48.024;8.774;2023-03-25T11:49:38;93478.88;;;10.09;79.70
51829;BME280;37881;48.024;8.774;2023-03-25T11:52:11;93474.34;;;10.38;76.19
51829;BME280;37881;48.024;8.774;2023-03-25T11:54:40;93463.09;;;11.02;73.50
51829;BME280;37881;48.024;8.774;2023-03-25T11:57:18;93464.09;;;11.25;71.43
51829;BME280;37881;48.024;8.774;2023-03-25T11:59:47;93470.97;;;11.49;67.96
51829;BME280;37881;48.024;8.774;2023-03-25T12:02:41;93467.91;;;12.06;62.93
51829;BME280;37881;48.024;8.774;2023-03-25T12:07:48;93479.34;;;10.60;66.15
51829;BME280;37881;48.024;8.774;2023-03-25T12:10:25;93492.75;;;10.18;67.42
51829;BME280;37881;48.024;8.774;2023-03-25T12:18:47;93456.06;;;11.63;67.39
51829;BME280;37881;48.024;8.774;2023-03-25T12:24:25;93463.72;;;11.85;62.27
51829;BME280;37881;48.024;8.774;2023-03-25T12:32:21;93464.03;;;10.79;65.14
51829;BME280;37881;48.024;8.774;2023-03-25T12:49:05;93431.38;;;11.30;66.69
51829;BME280;37881;48.024;8.774;2023-03-25T12:51:59;93451.31;;;12.09;65.55
51829;BME280;37881;48.024;8.774;2023-03-25T12:54:41;93437.97;;;11.49;63.44
51829;BME280;37881;48.024;8.774;2023-03-25T12:57:15;93457.66;;;11.48;65.86
51829;BME280;37881;48.024;8.774;2023-03-25T13:02:51;93447.22;;;11.10;67.88
51829;BME280;37881;48.024;8.774;2023-03-25T13:05:26;93447.16;;;10.97;66.62
51829;BME280;37881;48.024;8.774;2023-03-25T13:08:09;93447.16;;;10.97;69.57
51829;BME280;37881;48.024;8.774;2023-03-25T13:10:38;93440.22;;;11.38;67.61
51829;BME280;37881;48.024;8.774;2023-03-25T13:13:15;93435.13;;;11.07;68.91
51829;BME280;37881;48.024;8.774;2023-03-25T13:15:47;93446.13;;;11.07;69.40
51829;BME280;37881;48.024;8.774;2023-03-25T13:18:21;93447.00;;;10.35;71.89
51829;BME280;37881;48.024;8.774;2023-03-25T13:21:09;93436.44;;;10.33;72.74
51829;BME280;37881;48.024;8.774;2023-03-25T13:23:41;93450.75;;;10.94;71.54
51829;BME280;37881;48.024;8.774;2023-03-25T13:26:11;93461.47;;;10.15;75.72
51829;BME280;37881;48.024;8.774;2023-03-25T13:28:44;93463.88;;;9.93;77.05
51829;BME280;37881;48.024;8.774;2023-03-25T13:31:18;93462.75;;;10.11;77.12
51829;BME280;37881;48.024;8.774;2023-03-25T13:33:52;93470.69;;;10.25;76.58
51829;BME280;37881;48.024;8.774;2023-03-25T13:36:33;93454.13;;;10.32;75.66
51829;BME280;37881;48.024;8.774;2023-03-25T13:39:19;93454.97;;;10.46;74.47
51829;BME280;37881;48.024;8.774;2023-03-25T13:42:05;93452.78;;;10.00;77.35
51829;BME280;37881;48.024;8.774;2023-03-25T13:44:39;93455.56;;;10.17;74.92
51829;BME280;37881;48.024;8.774;2023-03-25T13:49:51;93456.75;;;10.16;76.99
51829;BME280;37881;48.024;8.774;2023-03-25T13:52:24;93449.28;;;10.73;75.84
51829;BME280;37881;48.024;8.774;2023-03-25T13:54:58;93437.94;;;11.20;72.99
51829;BME280;37881;48.024;8.774;2023-03-25T14:00:52;93439.75;;;10.77;72.33
51829;BME280;37881;48.024;8.774;2023-03-25T14:14:04;93476.88;;;10.29;75.35
51829;BME280;37881;48.024;8.774;2023-03-25T14:16:36;93480.97;;;10.21;71.64
51829;BME280;37881;48.024;8.774;2023-03-25T14:19:10;93504.00;;;10.24;73.97
51829;BME280;37881;48.024;8.774;2023-03-25T14:21:45;93510.78;;;9.12;81.39
51829;BME280;37881;48.024;8.774;2023-03-25T14:24:15;93529.13;;;9.11;93.04
51829;BME280;37881;48.024;8.774;2023-03-25T14:26:53;93519.22;;;8.97;97.03
51829;BME280;37881;48.024;8.774;2023-03-25T14:29:33;93527.78;;;9.23;100.00
51829;BME280;37881;48.024;8.774;2023-03-25T14:32:22;93511.28;;;9.03;96.95
51829;BME280;37881;48.024;8.774;2023-03-25T14:34:52;93518.06;;;8.95;100.00
51829;BME280;37881;48.024;8.774;2023-03-25T14:37:27;93510.94;;;8.47;100.00
51829;BME280;37881;48.024;8.774;2023-03-25T14:40:01;93510.94;;;8.16;100.00
51829;BME280;37881;48.024;8.774;2023-03-25T14:42:57;93520.41;;;8.38;100.00
51829;BME280;37881;48.024;8.774;2023-03-25T14:45:33;93516.09;;;9.19;100.00
51829;BME280;37881;48.024;8.774;2023-03-25T14:48:22;93524.22;;;8.75;100.00
51829;BME280;37881;48.024;8.774;2023-03-25T14:51:55;93508.28;;;8.43;100.00
51829;BME280;37881;48.024;8.774;2023-03-25T14:54:13;93503.63;;;8.36;100.00
51829;BME280;37881;48.024;8.774;2023-03-25T14:59:25;93499.88;;;8.81;100.00
51829;BME280;37881;48.024;8.774;2023-03-25T15:02:00;93505.72;;;8.83;100.00
51829;BME280;37881;48.024;8.774;2023-03-25T15:04:38;93499.75;;;8.92;100.00
51829;BME280;37881;48.024;8.774;2023-03-25T15:07:10;93486.88;;;8.89;100.00
51829;BME280;37881;48.024;8.774;2023-03-25T15:09:49;93483.38;;;8.88;100.00
51829;BME280;37881;48.024;8.774;2023-03-25T15:12:20;93489.22;;;9.14;100.00
51829;BME280;37881;48.024;8.774;2023-03-25T15:14:54;93488.00;;;9.38;100.00
51829;BME280;37881;48.024;8.774;2023-03-25T15:17:44;93488.50;;;9.10;99.03
51829;BME280;37881;48.024;8.774;2023-03-25T15:25:52;93499.06;;;8.84;94.21
51829;BME280;37881;48.024;8.774;2023-03-25T15:31:26;93492.31;;;9.16;93.40
51829;BME280;37881;48.024;8.774;2023-03-25T15:34:14;93477.72;;;9.23;91.87